Time;durP1;ratioP1;P1;durP2;ratioP2;P2;SDS_P1;SDS_P2;PMS_P1;PMS_P2;Temp;Humidity;BMP_temperature;BMP_pressure;BME280_temperature;BME280_humidity;BME280_pressure;Samples;Min_cycle;Max_cycle;Signal;HPM_P1;HPM_P2
2019/07/28 00:02:37;;;;;;;9.4;6.9;;;;;;;17.53;83.23535;923.8722;;;;
2019/07/28 00:05:54;;;;;;;8.7;6.5;;;;;;;17.67;82.4248;923.9851;;;;
2019/07/28 00:09:15;;;;;;;7.8;6;;;;;;;17.73;82.19531;924.0706;;;;
2019/07/28 00:12:32;;;;;;;8.3;6.4;;;;;;;17.64;82.26953;924.0064;;;;
2019/07/28 00:15:50;;;;;;;9.6;6.4;;;;;;;17.52;82.65137;924.016;;;;
2019/07/28 00:19:05;;;;;;;8.4;6.8;;;;;;;17.5;82.97266;923.9886;;;;
2019/07/28 00:22:20;;;;;;;7.9;6.8;;;;;;;17.49;83.14551;923.9511;;;;
2019/07/28 00:25:42;;;;;;;9.5;7.3;;;;;;;17.58;83.22266;923.9802;;;;
2019/07/28 00:29:03;;;;;;;9.6;7.3;;;;;;;17.49;83.16895;923.9858;;;;
2019/07/28 00:32:39;;;;;;;14.3;7.4;;;;;;;17.62;83.21777;923.9363;;;;
2019/07/28 00:35:54;;;;;;;9.4;6.3;;;;;;;17.7;83.18457;923.9087;;;;
2019/07/28 00:39:15;;;;;;;7.4;5.9;;;;;;;17.54;84.1416;923.8621;;;;
2019/07/28 00:42:31;;;;;;;7.9;5.7;;;;;;;17.68;83.94922;923.8762;;;;
2019/07/28 00:45:52;;;;;;;10.9;6.3;;;;;;;17.44;84.31836;923.8687;;;;
2019/07/28 00:49:08;;;;;;;9.1;5.8;;;;;;;17.28;85.36719;923.8273;;;;
2019/07/28 00:52:22;;;;;;;7.3;5.6;;;;;;;17.56;84.19141;923.8083;;;;
2019/07/28 00:55:42;;;;;;;8.4;6;;;;;;;17.66;83.46777;923.7466;;;;
2019/07/28 00:59:01;;;;;;;9.4;5.9;;;;;;;17.86;83.30957;923.7902;;;;
2019/07/28 01:02:23;;;;;;;7.7;5.8;;;;;;;17.89;82.71094;923.8155;;;;
2019/07/28 01:05:38;;;;;;;7.6;5.8;;;;;;;18.01;81.97852;923.8283;;;;
2019/07/28 01:08:54;;;;;;;8.6;5.9;;;;;;;17.96;82.25879;923.7548;;;;
2019/07/28 01:12:11;;;;;;;8.2;5.9;;;;;;;17.96;82.00488;923.7112;;;;
2019/07/28 01:15:32;;;;;;;9.7;6.2;;;;;;;17.94;81.95508;923.7869;;;;
2019/07/28 01:18:49;;;;;;;6.3;5.6;;;;;;;17.52;83.74219;923.7753;;;;
2019/07/28 01:22:42;;;;;;;8.1;6.2;;;;;;;17.44;84.19238;923.6448;;;;
2019/07/28 01:25:58;;;;;;;7.9;6.3;;;;;;;17.59;83.62793;923.683;;;;
2019/07/28 01:29:13;;;;;;;10.5;6.3;;;;;;;17.72;82.89746;923.6864;;;;
2019/07/28 01:32:29;;;;;;;6.2;5.6;;;;;;;17.49;83.72559;923.7411;;;;
2019/07/28 01:35:43;;;;;;;8;5.7;;;;;;;17.43;84.06348;923.7746;;;;
2019/07/28 01:39:02;;;;;;;6.6;5.7;;;;;;;17.34;84.47363;923.7026;;;;
2019/07/28 01:42:17;;;;;;;6.5;5.6;;;;;;;17.12;85.26758;923.6135;;;;
2019/07/28 01:45:30;;;;;;;8.7;5.9;;;;;;;17.16;85.20313;923.5436;;;;
2019/07/28 01:48:44;;;;;;;7.5;6.1;;;;;;;17.36;84.57129;923.5497;;;;
2019/07/28 01:51:59;;;;;;;7.3;6.5;;;;;;;17.47;83.60742;923.5798;;;;
2019/07/28 01:55:15;;;;;;;8.9;6.5;;;;;;;17.39;83.99609;923.6472;;;;
2019/07/28 01:58:30;;;;;;;9.8;6.7;;;;;;;17.6;83.36523;923.66;;;;
2019/07/28 02:01:51;;;;;;;8.1;6.5;;;;;;;17.62;83.32031;923.5676;;;;
2019/07/28 02:05:07;;;;;;;8.3;6.7;;;;;;;17.66;83.02734;923.5623;;;;
2019/07/28 02:08:28;;;;;;;9.5;6.3;;;;;;;17.41;83.75684;923.5638;;;;
2019/07/28 02:11:46;;;;;;;8.9;6.4;;;;;;;17.33;84.51953;923.5839;;;;
2019/07/28 02:15:01;;;;;;;10.8;7;;;;;;;17.49;84.29395;923.6935;;;;
2019/07/28 02:18:18;;;;;;;7.4;6.1;;;;;;;17.62;83.85547;923.7045;;;;
2019/07/28 02:21:42;;;;;;;10.7;6;;;;;;;17.74;83.22852;923.5709;;;;
2019/07/28 02:25:06;;;;;;;7.8;6.2;;;;;;;17.76;82.76855;923.4735;;;;
2019/07/28 02:28:20;;;;;;;6.8;5.9;;;;;;;17.73;82.38867;923.4791;;;;
2019/07/28 02:31:36;;;;;;;8.7;6.3;;;;;;;17.69;82.84766;923.5531;;;;
2019/07/28 02:34:53;;;;;;;8.4;6.2;;;;;;;17.45;83.88281;923.6386;;;;
2019/07/28 02:38:06;;;;;;;7.6;6.1;;;;;;;17.75;83.61328;923.6433;;;;
2019/07/28 02:41:20;;;;;;;7.4;5.6;;;;;;;17.75;83.0791;923.6433;;;;
2019/07/28 02:44:46;;;;;;;6.7;5.5;;;;;;;17.63;82.84961;923.5438;;;;
2019/07/28 02:48:09;;;;;;;6.7;5.9;;;;;;;17.45;83.69531;923.4416;;;;
2019/07/28 02:51:28;;;;;;;10.1;6.5;;;;;;;17.51;83.61426;923.4841;;;;
2019/07/28 02:54:45;;;;;;;10.7;6.6;;;;;;;17.68;82.79785;923.3789;;;;
2019/07/28 02:58:01;;;;;;;8.4;6;;;;;;;17.71;82.91895;923.3705;;;;
2019/07/28 03:01:16;;;;;;;7.7;5.9;;;;;;;17.72;83.23633;923.3722;;;;
2019/07/28 03:04:32;;;;;;;9.1;5.8;;;;;;;17.71;82.97949;923.3308;;;;
2019/07/28 03:07:50;;;;;;;8.5;5.8;;;;;;;17.78;82.2959;923.3592;;;;
2019/07/28 03:11:06;;;;;;;7.1;5.8;;;;;;;17.75;82.91797;923.2775;;;;
2019/07/28 03:14:21;;;;;;;7.3;5.7;;;;;;;17.66;83.09863;923.2997;;;;
2019/07/28 03:17:37;;;;;;;7.1;5.8;;;;;;;17.62;83.1709;923.3478;;;;
2019/07/28 03:20:56;;;;;;;6.7;5.8;;;;;;;17.89;82.58398;923.2961;;;;
2019/07/28 03:24:13;;;;;;;8.2;6.3;;;;;;;17.84;83.12109;923.2693;;;;
2019/07/28 03:27:31;;;;;;;7.6;6.3;;;;;;;17.97;81.99316;923.2036;;;;
2019/07/28 03:30:48;;;;;;;6.9;5.9;;;;;;;17.94;82.99902;923.1992;;;;
2019/07/28 03:34:04;;;;;;;9.4;6.3;;;;;;;17.85;82.42383;923.1562;;;;
2019/07/28 03:37:21;;;;;;;8.2;6.1;;;;;;;17.83;82.2334;923.2844;;;;
2019/07/28 03:40:45;;;;;;;6.9;4.9;;;;;;;17.63;82.30273;923.218;;;;
2019/07/28 03:44:04;;;;;;;6.3;4.8;;;;;;;17.56;84.36621;923.2714;;;;
2019/07/28 03:47:22;;;;;;;8;6.1;;;;;;;17.82;83.73145;923.2548;;;;
2019/07/28 03:50:37;;;;;;;7;5.7;;;;;;;17.8;84.11035;923.2617;;;;
2019/07/28 03:53:53;;;;;;;9.8;5.7;;;;;;;17.91;83.13477;923.3185;;;;
2019/07/28 03:57:11;;;;;;;7.8;5.9;;;;;;;17.85;83.86426;923.3236;;;;
2019/07/28 04:00:24;;;;;;;5.7;4.9;;;;;;;17.97;82.40137;923.3403;;;;
2019/07/28 04:06:32;;;;;;;6.4;5.4;;;;;;;18.02;82.60742;923.303;;;;
2019/07/28 04:09:51;;;;;;;9.5;6.3;;;;;;;17.88;82.6748;923.207;;;;
2019/07/28 04:13:08;;;;;;;5.7;5.2;;;;;;;17.84;83.67676;923.2614;;;;
2019/07/28 04:16:27;;;;;;;6.1;4.7;;;;;;;17.96;82.00293;923.2394;;;;
2019/07/28 04:19:44;;;;;;;5.7;5.1;;;;;;;17.97;82.07617;923.2849;;;;
2019/07/28 04:23:00;;;;;;;5.4;4.6;;;;;;;18;82.48828;923.2881;;;;
2019/07/28 04:26:20;;;;;;;7.5;4.4;;;;;;;18.08;80.93359;923.1481;;;;
2019/07/28 04:29:37;;;;;;;6.6;4.6;;;;;;;18.08;81.35156;923.3028;;;;
2019/07/28 04:33:01;;;;;;;5.1;4.5;;;;;;;18.19;81.94434;923.1439;;;;
2019/07/28 04:36:23;;;;;;;5.5;4.7;;;;;;;18.18;81.52246;923.1115;;;;
2019/07/28 04:39:44;;;;;;;5.7;4.6;;;;;;;18.18;81.40625;923.056;;;;
2019/07/28 04:43:01;;;;;;;4.9;4.5;;;;;;;18.18;81.63672;923.0302;;;;
2019/07/28 04:46:26;;;;;;;5.5;4.6;;;;;;;18.18;81.02246;922.9994;;;;
2019/07/28 04:49:40;;;;;;;5.6;4.9;;;;;;;18.12;82.53516;923.0562;;;;
2019/07/28 04:52:58;;;;;;;7.4;5.2;;;;;;;18.27;81.93262;923.0863;;;;
2019/07/28 04:56:15;;;;;;;5.8;4.8;;;;;;;18.41;81.30859;923.1122;;;;
2019/07/28 04:59:34;;;;;;;5.6;4.3;;;;;;;18.28;82.09668;923.093;;;;
2019/07/28 05:02:48;;;;;;;7.1;4.8;;;;;;;18.36;82.50879;923.1191;;;;
2019/07/28 05:06:05;;;;;;;5.1;4.5;;;;;;;18.43;82.38184;923.2083;;;;
2019/07/28 05:09:23;;;;;;;6;4.5;;;;;;;18.7;80.1416;923.2151;;;;
2019/07/28 05:12:46;;;;;;;6;4.4;;;;;;;18.78;80.25;923.2539;;;;
2019/07/28 05:16:05;;;;;;;6.4;4.6;;;;;;;18.89;79.55762;923.3452;;;;
2019/07/28 05:19:20;;;;;;;5.7;4.9;;;;;;;18.95;79.98633;923.2725;;;;
2019/07/28 05:22:45;;;;;;;5.3;4.5;;;;;;;19.05;79.82031;923.2487;;;;
2019/07/28 05:26:04;;;;;;;5.2;4.7;;;;;;;19.1;78.40918;923.1024;;;;
2019/07/28 05:29:20;;;;;;;7.3;5.3;;;;;;;19.2;79.62695;923.0872;;;;
2019/07/28 05:32:35;;;;;;;6.3;4.8;;;;;;;18.96;78.36035;923.1204;;;;
2019/07/28 05:35:56;;;;;;;5.1;4.6;;;;;;;18.99;80.23926;922.9995;;;;
2019/07/28 05:39:13;;;;;;;6.9;4.8;;;;;;;18.94;78.47363;922.96;;;;
2019/07/28 05:42:37;;;;;;;8.2;4.6;;;;;;;18.89;78.44043;923.0792;;;;
2019/07/28 05:45:55;;;;;;;6.4;4.4;;;;;;;18.92;78.77344;923.0527;;;;
2019/07/28 05:49:10;;;;;;;5.7;4.2;;;;;;;19;78.59961;923.0837;;;;
2019/07/28 05:52:27;;;;;;;5.5;4.3;;;;;;;19.14;78.70703;923.1055;;;;
2019/07/28 05:55:44;;;;;;;4.5;4.1;;;;;;;19.22;77.95313;923.08;;;;
2019/07/28 05:59:00;;;;;;;4.9;4.4;;;;;;;19.42;77.45215;923.0627;;;;
2019/07/28 06:02:17;;;;;;;7.7;4.2;;;;;;;19.78;77.7373;923.0553;;;;
2019/07/28 06:05:36;;;;;;;5.2;3.6;;;;;;;20.65;72.44629;923.009;;;;
2019/07/28 06:09:06;;;;;;;8.2;4;;;;;;;21.19;69.77344;922.9833;;;;
2019/07/28 06:12:22;;;;;;;4.2;3.8;;;;;;;21.34;68.83496;923.0511;;;;
2019/07/28 06:15:39;;;;;;;7.4;3.7;;;;;;;21.51;67.49316;923.0747;;;;
2019/07/28 06:18:57;;;;;;;6.4;3.7;;;;;;;22.56;66.25684;923.0672;;;;
2019/07/28 06:22:17;;;;;;;6.4;3.3;;;;;;;23.67;62.375;922.9949;;;;
2019/07/28 06:25:35;;;;;;;5.8;3.2;;;;;;;24.9;58.74805;923.0039;;;;
2019/07/28 06:28:57;;;;;;;4.7;3.1;;;;;;;25.1;56.37891;922.9811;;;;
2019/07/28 06:32:12;;;;;;;5.4;3;;;;;;;24.9;59.12598;922.9258;;;;
2019/07/28 06:35:31;;;;;;;3.7;3.2;;;;;;;25.72;54.2002;922.9406;;;;
2019/07/28 06:38:51;;;;;;;3.5;2.8;;;;;;;25.85;54.06055;923.0011;;;;
2019/07/28 06:42:13;;;;;;;5.1;3.3;;;;;;;25.69;55.27051;922.8862;;;;
2019/07/28 06:45:27;;;;;;;5.8;3.2;;;;;;;25.34;54.55566;922.9339;;;;
2019/07/28 06:48:46;;;;;;;5.6;3.2;;;;;;;25.23;55.9707;922.9673;;;;
2019/07/28 06:52:04;;;;;;;3.8;3.2;;;;;;;24.11;60.78809;922.9398;;;;
2019/07/28 06:55:22;;;;;;;5;3.4;;;;;;;23.53;63.66016;922.9827;;;;
2019/07/28 06:58:39;;;;;;;6.4;3.6;;;;;;;22.85;66.14648;922.9596;;;;
2019/07/28 07:01:54;;;;;;;5;3.6;;;;;;;22.49;67.98242;922.9242;;;;
2019/07/28 07:05:10;;;;;;;4;3.6;;;;;;;22.29;69.18359;922.9349;;;;
2019/07/28 07:08:33;;;;;;;8.1;3.9;;;;;;;22.47;66.80664;922.9747;;;;
2019/07/28 07:11:53;;;;;;;4.4;3.6;;;;;;;22.78;65.4209;922.9875;;;;
2019/07/28 07:15:10;;;;;;;5.2;3.4;;;;;;;22.94;63.42383;922.9402;;;;
2019/07/28 07:18:26;;;;;;;4.2;3.4;;;;;;;23.64;61.52344;922.9481;;;;
2019/07/28 07:21:45;;;;;;;4.7;3.3;;;;;;;24.01;61.5625;922.9489;;;;
2019/07/28 07:25:01;;;;;;;5.6;3.5;;;;;;;24.69;59.12207;922.9489;;;;
2019/07/28 07:28:20;;;;;;;5.5;2.9;;;;;;;25.46;59.47168;922.9138;;;;
2019/07/28 07:31:38;;;;;;;4.7;3.3;;;;;;;26.01;55.60547;922.8155;;;;
2019/07/28 07:34:54;;;;;;;5.7;3.1;;;;;;;26.69;50.83496;922.8348;;;;
2019/07/28 07:38:18;;;;;;;6.2;2.7;;;;;;;26.59;54.82715;922.9573;;;;
2019/07/28 07:41:47;;;;;;;4.4;2.6;;;;;;;26.66;51.81445;923.0011;;;;
2019/07/28 07:45:06;;;;;;;5.2;2.7;;;;;;;26.72;52.65039;923.0305;;;;
2019/07/28 07:48:23;;;;;;;4.2;2.6;;;;;;;26.12;53.19531;923.1305;;;;
2019/07/28 07:51:40;;;;;;;3.2;2.5;;;;;;;25.5;54.34961;923.1808;;;;
2019/07/28 07:55:02;;;;;;;3.1;2.3;;;;;;;24.61;58.88672;923.2928;;;;
2019/07/28 07:58:24;;;;;;;5.8;2.6;;;;;;;23.6;61.3418;923.3223;;;;
2019/07/28 08:01:39;;;;;;;3.5;2.4;;;;;;;23.68;61.69434;923.4526;;;;
2019/07/28 08:04:55;;;;;;;4.3;2.6;;;;;;;23.16;62.11621;923.5345;;;;
2019/07/28 08:08:11;;;;;;;3.6;2.4;;;;;;;23.06;62.75879;923.6085;;;;
2019/07/28 08:11:29;;;;;;;4.4;2.6;;;;;;;22.65;64.70703;923.6077;;;;
2019/07/28 08:14:43;;;;;;;4.2;2.6;;;;;;;22.45;64.70313;923.5106;;;;
2019/07/28 08:18:01;;;;;;;3.1;2.6;;;;;;;22.58;66.0127;923.4489;;;;
2019/07/28 08:21:19;;;;;;;3.7;2.6;;;;;;;22.8;65.72754;923.3186;;;;
2019/07/28 08:24:38;;;;;;;3.6;2.9;;;;;;;22.76;64.93555;923.325;;;;
2019/07/28 08:28:02;;;;;;;4.7;2.6;;;;;;;23.25;64.56055;923.3608;;;;
2019/07/28 08:31:26;;;;;;;5.8;2.8;;;;;;;23.79;62.47363;923.3289;;;;
2019/07/28 08:34:48;;;;;;;3.9;2.8;;;;;;;23.75;62.18652;923.2575;;;;
2019/07/28 08:38:03;;;;;;;6;2.6;;;;;;;23.65;62.52539;923.2966;;;;
2019/07/28 08:41:28;;;;;;;5.6;2.6;;;;;;;23.49;63.17285;923.3234;;;;
2019/07/28 08:44:45;;;;;;;4.6;2.7;;;;;;;23.12;63.97656;923.2784;;;;
2019/07/28 08:48:04;;;;;;;4.9;2.8;;;;;;;22.7;65.71484;923.3171;;;;
2019/07/28 08:51:24;;;;;;;5.1;2.9;;;;;;;22.7;65.14941;923.3223;;;;
2019/07/28 08:54:43;;;;;;;4.4;2.8;;;;;;;22.64;65.9873;923.3663;;;;
2019/07/28 08:58:06;;;;;;;5.3;2.6;;;;;;;22.36;66.56738;923.4334;;;;
2019/07/28 09:01:19;;;;;;;5;2.9;;;;;;;22.03;67.64258;923.4572;;;;
2019/07/28 09:04:38;;;;;;;3.3;2.9;;;;;;;21.84;68.57422;923.5181;;;;
2019/07/28 09:07:52;;;;;;;3.9;2.8;;;;;;;21.97;68.38281;923.5759;;;;
2019/07/28 09:11:09;;;;;;;4.4;2.9;;;;;;;21.93;69.65625;923.577;;;;
2019/07/28 09:14:26;;;;;;;4.2;2.9;;;;;;;21.74;69.20313;923.5444;;;;
2019/07/28 09:17:45;;;;;;;4.5;2.7;;;;;;;21.8;69.5625;923.5733;;;;
2019/07/28 09:21:02;;;;;;;4.3;2.8;;;;;;;21.88;68.66309;923.5767;;;;
2019/07/28 09:24:18;;;;;;;6.2;3.1;;;;;;;21.61;69.55762;923.5691;;;;
2019/07/28 09:27:34;;;;;;;5.1;3.2;;;;;;;21.43;71.25;923.6234;;;;
2019/07/28 09:30:50;;;;;;;3.8;3.2;;;;;;;21.42;71.47168;923.5817;;;;
2019/07/28 09:34:08;;;;;;;4.9;3;;;;;;;21.44;71.07617;923.6222;;;;
2019/07/28 09:37:24;;;;;;;5.5;3.1;;;;;;;21.16;71.50977;923.6539;;;;
2019/07/28 09:40:23;;;;;;;5.8;3.1;;;;;;;21.37;71.29883;923.5942;;;;
2019/07/28 09:43:38;;;;;;;3.9;3.2;;;;;;;21.26;71.08203;923.7034;;;;
2019/07/28 09:47:03;;;;;;;3.9;3.1;;;;;;;21.5;71.82227;923.7122;;;;
2019/07/28 09:50:23;;;;;;;4.6;3.2;;;;;;;21.44;72.13965;923.7012;;;;
2019/07/28 09:53:59;;;;;;;6.3;3.5;;;;;;;21.37;71.67188;923.7678;;;;
2019/07/28 09:57:17;;;;;;;5;3.1;;;;;;;21.64;71.24805;923.7239;;;;
2019/07/28 10:00:37;;;;;;;7.9;3.1;;;;;;;21.62;71.14063;923.7869;;;;
2019/07/28 10:04:09;;;;;;;4;3;;;;;;;21.76;71.26758;923.748;;;;
2019/07/28 10:07:24;;;;;;;4.2;3.2;;;;;;;21.85;69.78223;923.7294;;;;
2019/07/28 10:10:48;;;;;;;4.2;3.2;;;;;;;21.85;69.79395;923.7243;;;;
2019/07/28 10:14:07;;;;;;;3.5;2.8;;;;;;;22.34;67.7959;923.7357;;;;
2019/07/28 10:17:31;;;;;;;4.2;2.9;;;;;;;22.6;67.25977;923.767;;;;
2019/07/28 10:20:58;;;;;;;4.8;2.7;;;;;;;22.73;66.12988;923.8444;;;;
2019/07/28 10:24:18;;;;;;;3.3;2.7;;;;;;;22.67;67.66992;923.8675;;;;
2019/07/28 10:27:28;;;;;;;4.1;2.9;;;;;;;23.04;64.91797;923.7759;;;;
2019/07/28 10:30:50;;;;;;;6;2.7;;;;;;;23.27;63.72852;923.9378;;;;
2019/07/28 10:34:14;;;;;;;4.4;2.7;;;;;;;23.62;62.76855;923.9387;;;;
2019/07/28 10:37:29;;;;;;;4.4;2.7;;;;;;;23.8;63.38086;924.0391;;;;
2019/07/28 10:40:50;;;;;;;3.6;2.7;;;;;;;23.49;64.34863;924.0514;;;;
2019/07/28 10:44:05;;;;;;;5.6;2.8;;;;;;;23.14;65.14453;924.0672;;;;
2019/07/28 10:47:26;;;;;;;4.3;2.9;;;;;;;22.74;66.34082;924.0859;;;;
2019/07/28 10:50:41;;;;;;;5.9;3;;;;;;;22.43;67.22266;924.0363;;;;
2019/07/28 10:53:58;;;;;;;5.3;3;;;;;;;22.11;69.10938;924.1273;;;;
2019/07/28 10:57:21;;;;;;;6.1;3.2;;;;;;;21.67;71.21777;924.1259;;;;
2019/07/28 11:00:43;;;;;;;5.7;3.3;;;;;;;21.77;72.58105;924.2045;;;;
2019/07/28 11:04:03;;;;;;;6.2;3.6;;;;;;;21.66;74.6123;924.2697;;;;
2019/07/28 11:07:19;;;;;;;5.3;3.6;;;;;;;21.08;76.39844;924.3267;;;;
2019/07/28 11:10:34;;;;;;;5;4.2;;;;;;;21.11;77.99414;924.3011;;;;
2019/07/28 11:13:59;;;;;;;6.4;4.1;;;;;;;21.12;76.85059;924.2856;;;;
2019/07/28 11:17:14;;;;;;;4.2;3.8;;;;;;;21.04;77.49121;924.3586;;;;
2019/07/28 11:20:34;;;;;;;6.4;3.5;;;;;;;21.1;76.14551;924.4098;;;;
2019/07/28 11:23:49;;;;;;;5.6;3.8;;;;;;;21.11;77.78516;924.4423;;;;
2019/07/28 11:27:08;;;;;;;5.1;3.6;;;;;;;20.91;77.35059;924.4656;;;;
2019/07/28 11:30:22;;;;;;;6.5;3.8;;;;;;;20.88;78.22266;924.5352;;;;
2019/07/28 11:33:55;;;;;;;5.3;3.9;;;;;;;20.79;79.07227;924.5016;;;;
2019/07/28 11:37:10;;;;;;;5.4;4.4;;;;;;;20.68;80.09277;924.5533;;;;
2019/07/28 11:40:26;;;;;;;7.2;4.5;;;;;;;20.75;80.71191;924.5295;;;;
2019/07/28 11:43:51;;;;;;;7.1;4.3;;;;;;;20.85;80.75293;924.4934;;;;
2019/07/28 11:47:13;;;;;;;5.9;4.5;;;;;;;20.92;80.87207;924.5511;;;;
2019/07/28 11:50:31;;;;;;;6.5;5;;;;;;;20.98;81.51465;924.5714;;;;
2019/07/28 11:54:04;;;;;;;6.2;4.6;;;;;;;21;80.08008;924.6285;;;;
2019/07/28 11:57:23;;;;;;;5.4;4.4;;;;;;;21.03;78.73926;924.6758;;;;
2019/07/28 12:00:42;;;;;;;6.8;4.9;;;;;;;21.02;78.68164;924.5822;;;;
2019/07/28 12:04:06;;;;;;;7.5;4.9;;;;;;;21.03;79.71191;924.6021;;;;
2019/07/28 12:07:21;;;;;;;7.8;5.5;;;;;;;21.18;80.80273;924.5997;;;;
2019/07/28 12:10:44;;;;;;;8;5.2;;;;;;;20.94;80.19824;924.6331;;;;
2019/07/28 12:14:02;;;;;;;5.8;4.6;;;;;;;20.97;78.35547;924.6204;;;;
2019/07/28 12:17:19;;;;;;;5.5;4.4;;;;;;;20.85;80.47266;924.6049;;;;
2019/07/28 12:20:35;;;;;;;7.5;5;;;;;;;20.74;80.09082;924.6523;;;;
2019/07/28 12:23:56;;;;;;;6.7;4.9;;;;;;;20.52;80.40234;924.6907;;;;
2019/07/28 12:27:16;;;;;;;10.1;5.3;;;;;;;20.67;82.1709;924.6722;;;;
2019/07/28 12:30:35;;;;;;;5.5;4.7;;;;;;;20.23;82.85938;924.6746;;;;
2019/07/28 12:32:58;;;;;;;5.6;5;;;;;;;20.36;83.55078;924.71;;;;
2019/07/28 12:36:11;;;;;;;7.1;5.3;;;;;;;20.55;82.89551;924.7597;;;;
2019/07/28 12:39:30;;;;;;;8.2;5.6;;;;;;;20.94;83.45898;924.7249;;;;
2019/07/28 12:42:50;;;;;;;7.2;5.1;;;;;;;20.92;81.84375;924.7532;;;;
2019/07/28 12:46:10;;;;;;;5.8;4.8;;;;;;;20.91;81.7002;924.7855;;;;
2019/07/28 12:49:27;;;;;;;6.6;4.8;;;;;;;20.92;81.19922;924.7712;;;;
2019/07/28 12:52:41;;;;;;;5.8;4.2;;;;;;;20.82;81.01855;924.73;;;;
2019/07/28 12:56:00;;;;;;;4.7;4.1;;;;;;;20.76;80.49121;924.7225;;;;
2019/07/28 12:59:18;;;;;;;5.2;4.4;;;;;;;20.83;81.9541;924.8245;;;;
2019/07/28 13:02:37;;;;;;;5.1;4.1;;;;;;;20.68;81.45801;924.7875;;;;
2019/07/28 13:05:54;;;;;;;5.4;4.1;;;;;;;20.7;82.05762;924.8835;;;;
2019/07/28 13:09:09;;;;;;;6.5;4.7;;;;;;;20.67;82.5918;924.8184;;;;
2019/07/28 13:12:27;;;;;;;5.1;4.2;;;;;;;21.02;81.53516;924.88;;;;
2019/07/28 13:15:45;;;;;;;6.1;4.1;;;;;;;21.05;81.29199;924.9453;;;;
2019/07/28 13:18:58;;;;;;;6;4.4;;;;;;;21.18;80.97852;924.9158;;;;
2019/07/28 13:22:15;;;;;;;5.3;4.6;;;;;;;21.17;80.14551;924.9688;;;;
2019/07/28 13:25:32;;;;;;;8.1;5.1;;;;;;;21.17;81.51465;924.9856;;;;
2019/07/28 13:28:51;;;;;;;6;4.2;;;;;;;21.16;80.55176;924.9233;;;;
2019/07/28 13:32:25;;;;;;;5.8;4.9;;;;;;;21.02;82.07129;924.9927;;;;
2019/07/28 13:35:50;;;;;;;5.6;4.4;;;;;;;21.03;81.13867;924.9905;;;;
2019/07/28 13:39:10;;;;;;;6.9;4.8;;;;;;;21.01;81.39063;924.9601;;;;
2019/07/28 13:42:38;;;;;;;5.5;4.3;;;;;;;21.29;80.49316;924.99;;;;
2019/07/28 13:45:55;;;;;;;7.3;4.8;;;;;;;21.55;79.76953;924.9658;;;;
2019/07/28 13:49:13;;;;;;;6.6;4.6;;;;;;;21.77;79.16406;925.0433;;;;
2019/07/28 13:52:29;;;;;;;6.2;4.5;;;;;;;21.86;79.47461;925.0237;;;;
2019/07/28 13:55:43;;;;;;;6.9;4.7;;;;;;;21.75;79.53613;925.0289;;;;
2019/07/28 13:59:02;;;;;;;6.1;4.4;;;;;;;21.7;79.43359;925.0622;;;;
2019/07/28 14:02:27;;;;;;;7.2;4.9;;;;;;;21.61;79.95605;925.0467;;;;
2019/07/28 14:05:43;;;;;;;6;4.9;;;;;;;21.59;80.12695;925.1671;;;;
2019/07/28 14:08:58;;;;;;;6;5.4;;;;;;;21.38;81.13184;925.2086;;;;
2019/07/28 14:12:18;;;;;;;7;5.3;;;;;;;21.19;82.1748;925.2372;;;;
2019/07/28 14:15:38;;;;;;;6.8;6.1;;;;;;;21.02;83.44141;925.2209;;;;
2019/07/28 14:18:54;;;;;;;9;7.3;;;;;;;21.27;83.1123;925.3331;;;;
2019/07/28 14:22:10;;;;;;;8.3;7.1;;;;;;;21.15;84.42383;925.2742;;;;
2019/07/28 14:25:27;;;;;;;8.9;6.5;;;;;;;21.25;83.23828;925.3329;;;;
2019/07/28 14:28:40;;;;;;;8.6;6.5;;;;;;;21.2;82.53711;925.3616;;;;
2019/07/28 14:32:13;;;;;;;7.7;6.9;;;;;;;21.37;82.19434;925.3524;;;;
2019/07/28 14:35:31;;;;;;;7.7;6.9;;;;;;;21.52;81.77637;925.4501;;;;
2019/07/28 14:38:48;;;;;;;7.9;6.6;;;;;;;21.67;80.82129;925.4352;;;;
2019/07/28 14:42:12;;;;;;;7.7;6.5;;;;;;;21.79;80.12988;925.4584;;;;
2019/07/28 14:45:28;;;;;;;7.9;7.1;;;;;;;21.88;80.32031;925.3843;;;;
2019/07/28 14:48:46;;;;;;;7.9;7;;;;;;;21.88;81.25781;925.4711;;;;
2019/07/28 14:52:03;;;;;;;8.5;6.9;;;;;;;21.84;79.5752;925.5111;;;;
2019/07/28 14:55:18;;;;;;;7.9;6.7;;;;;;;21.76;78.31934;925.5112;;;;
2019/07/28 14:58:33;;;;;;;8.5;6.5;;;;;;;21.54;80.80957;925.5541;;;;
2019/07/28 15:02:12;;;;;;;6.8;6.1;;;;;;;21.11;82.88281;925.6299;;;;
2019/07/28 15:05:27;;;;;;;9.2;7;;;;;;;21.13;84.21973;925.6495;;;;
2019/07/28 15:08:43;;;;;;;8;6.2;;;;;;;21.21;81.8623;925.5793;;;;
2019/07/28 15:11:59;;;;;;;8.3;7.1;;;;;;;21.37;81.78516;925.6245;;;;
2019/07/28 15:15:16;;;;;;;10.9;6.5;;;;;;;21.47;81.89746;925.6868;;;;
2019/07/28 15:18:31;;;;;;;6.6;6;;;;;;;21.11;81.22363;925.7245;;;;
2019/07/28 15:21:45;;;;;;;8.4;6.9;;;;;;;20.72;83.24316;925.7432;;;;
2019/07/28 15:25:07;;;;;;;8.1;6;;;;;;;20.55;84.15723;925.7341;;;;
2019/07/28 15:28:26;;;;;;;8.6;7.2;;;;;;;20.66;84.03906;925.7645;;;;
2019/07/28 15:31:44;;;;;;;7.4;6.5;;;;;;;20.48;84.89258;925.8611;;;;
2019/07/28 15:35:05;;;;;;;7.7;6.2;;;;;;;20.37;85.18555;925.8524;;;;
2019/07/28 15:38:23;;;;;;;7.9;6.2;;;;;;;20.41;84.95996;925.9064;;;;
2019/07/28 15:41:40;;;;;;;8.6;6.5;;;;;;;20.23;85.19238;925.9949;;;;
2019/07/28 15:44:59;;;;;;;9;6.4;;;;;;;20;86.29395;925.9933;;;;
2019/07/28 15:48:12;;;;;;;7.5;6.5;;;;;;;20.14;86.13184;926.0385;;;;
2019/07/28 15:51:29;;;;;;;11.9;7.5;;;;;;;20.05;86.39648;926.0693;;;;
2019/07/28 15:54:48;;;;;;;8.2;7.1;;;;;;;19.98;85.75195;926.0665;;;;
2019/07/28 15:58:07;;;;;;;8.8;6.8;;;;;;;20.1;86.39355;926.0831;;;;
2019/07/28 16:01:24;;;;;;;9.3;7.8;;;;;;;20.33;86.12402;926.095;;;;
2019/07/28 16:04:41;;;;;;;10.2;8.1;;;;;;;20.49;85.29102;926.1278;;;;
2019/07/28 16:07:55;;;;;;;10.8;8.2;;;;;;;20.55;84.76465;926.1183;;;;
2019/07/28 16:11:09;;;;;;;9.7;8;;;;;;;20.68;84.58008;926.1323;;;;
2019/07/28 16:14:22;;;;;;;9;7.7;;;;;;;20.68;84.61523;926.1582;;;;
2019/07/28 16:17:39;;;;;;;9.7;7.3;;;;;;;20.7;84.74512;926.2555;;;;
2019/07/28 16:21:00;;;;;;;10;8;;;;;;;20.59;85.13477;926.2587;;;;
2019/07/28 16:24:16;;;;;;;9.5;8.5;;;;;;;20.5;85.94727;926.2807;;;;
2019/07/28 16:27:34;;;;;;;9.9;7.8;;;;;;;20.36;86.14063;926.2287;;;;
2019/07/28 16:30:59;;;;;;;8.8;6.8;;;;;;;20.29;86.69922;926.3646;;;;
2019/07/28 16:34:18;;;;;;;8.8;8;;;;;;;20.18;86.84277;926.3677;;;;
2019/07/28 16:37:36;;;;;;;11.6;9.7;;;;;;;20.25;86.77148;926.4919;;;;
2019/07/28 16:40:56;;;;;;;12.4;10.4;;;;;;;20.4;86.42871;926.5424;;;;
2019/07/28 16:44:17;;;;;;;12.9;10.9;;;;;;;20.32;86.73926;926.6833;;;;
2019/07/28 16:47:37;;;;;;;13;10.9;;;;;;;20.15;87.31445;926.7863;;;;
2019/07/28 16:50:59;;;;;;;12.1;9.6;;;;;;;20.28;86.74609;926.7836;;;;
2019/07/28 16:54:15;;;;;;;10.9;9;;;;;;;20.39;85.59766;926.7336;;;;
2019/07/28 16:57:36;;;;;;;9.8;8.5;;;;;;;20.25;86.22461;926.7327;;;;
2019/07/28 17:00:54;;;;;;;11.2;9;;;;;;;20.35;86.46777;926.7642;;;;
2019/07/28 17:04:11;;;;;;;11.5;9.2;;;;;;;20.35;86.83984;926.825;;;;
2019/07/28 17:07:29;;;;;;;10.6;8.4;;;;;;;20.39;85.87793;926.8889;;;;
2019/07/28 17:10:47;;;;;;;10.4;8.9;;;;;;;20.38;86.21484;926.899;;;;
2019/07/28 17:14:03;;;;;;;11.9;8.3;;;;;;;20.32;85.95898;926.9758;;;;
2019/07/28 17:17:23;;;;;;;10.1;7.9;;;;;;;20.36;85.80371;927.0903;;;;
2019/07/28 17:20:51;;;;;;;9;6.9;;;;;;;20.26;85.86523;927.2061;;;;
2019/07/28 17:24:15;;;;;;;11.6;8.5;;;;;;;20.11;86.88672;927.37;;;;
2019/07/28 17:27:36;;;;;;;15.4;10.4;;;;;;;19.94;87.9248;927.4905;;;;
2019/07/28 17:30:57;;;;;;;17.2;10.1;;;;;;;19.96;87.52148;927.5129;;;;
2019/07/28 17:34:16;;;;;;;14.1;11.1;;;;;;;20.05;86.46777;927.5888;;;;
2019/07/28 17:37:37;;;;;;;10.8;9.7;;;;;;;19.97;86.26367;927.6539;;;;
2019/07/28 17:40:52;;;;;;;11.1;8.3;;;;;;;19.92;86.34668;927.7047;;;;
2019/07/28 17:44:07;;;;;;;7.1;5.2;;;;;;;19.73;86.64746;927.685;;;;
2019/07/28 17:47:23;;;;;;;6.9;6.2;;;;;;;19.71;87.53027;927.7053;;;;
2019/07/28 17:50:43;;;;;;;6;5.4;;;;;;;19.41;88.45996;927.7792;;;;
2019/07/28 17:54:06;;;;;;;7.9;5.4;;;;;;;19.41;88.61328;927.787;;;;
2019/07/28 17:57:41;;;;;;;4.3;3.1;;;;;;;19.34;88.16895;927.8876;;;;
2019/07/28 18:00:56;;;;;;;3.4;2.4;;;;;;;19.27;87.74707;928.0061;;;;
2019/07/28 18:04:25;;;;;;;6.1;2.8;;;;;;;19.41;87.44922;928.0236;;;;
2019/07/28 18:07:44;;;;;;;3.4;2.4;;;;;;;18.76;88.85449;928.1002;;;;
2019/07/28 18:10:57;;;;;;;4.5;2.5;;;;;;;19.02;88.18359;928.0808;;;;
2019/07/28 18:14:13;;;;;;;5.7;3.2;;;;;;;19.09;88.10547;928.2648;;;;
2019/07/28 18:17:31;;;;;;;4.2;3;;;;;;;19.17;87.17773;928.3351;;;;
2019/07/28 18:20:51;;;;;;;4.6;2.5;;;;;;;19.26;86.96484;928.343;;;;
2019/07/28 18:24:23;;;;;;;5.4;3.1;;;;;;;19.46;86.85254;928.3828;;;;
2019/07/28 18:27:42;;;;;;;4.3;2.6;;;;;;;19.48;86.17871;928.3418;;;;
2019/07/28 18:31:05;;;;;;;3.9;2;;;;;;;19.4;85.82617;928.461;;;;
2019/07/28 18:34:47;;;;;;;4.4;2.3;;;;;;;19.44;86.46289;928.5372;;;;
2019/07/28 18:38:05;;;;;;;4.5;2.7;;;;;;;19.53;86.52734;928.5586;;;;
2019/07/28 18:41:43;;;;;;;5.5;3;;;;;;;19.5;86.25391;928.5889;;;;
2019/07/28 18:45:02;;;;;;;3.8;2.3;;;;;;;19.32;86.22949;928.7344;;;;
2019/07/28 18:48:18;;;;;;;6.3;2.5;;;;;;;19.3;87.31934;928.7765;;;;
2019/07/28 18:51:48;;;;;;;5;3;;;;;;;19.43;87.55762;928.7271;;;;
2019/07/28 18:55:12;;;;;;;4.2;2.7;;;;;;;19.45;86.79199;928.7714;;;;
2019/07/28 18:58:47;;;;;;;5.6;3;;;;;;;19.45;86.73242;928.8501;;;;
2019/07/28 19:02:32;;;;;;;5.1;2.7;;;;;;;19.45;86.59277;928.9056;;;;
2019/07/28 19:09:51;;;;;;;4.8;3;;;;;;;19.1;88.16699;928.9856;;;;
2019/07/28 19:13:15;;;;;;;6.5;3.2;;;;;;;19.25;87.54395;929.0851;;;;
2019/07/28 19:16:29;;;;;;;5.7;3.3;;;;;;;19.28;87.31641;929.1195;;;;
2019/07/28 19:19:50;;;;;;;4.4;3;;;;;;;19.26;86.56836;929.1217;;;;
2019/07/28 19:23:15;;;;;;;4.7;3.3;;;;;;;19.29;86.80664;929.2089;;;;
2019/07/28 19:26:38;;;;;;;5.8;3.4;;;;;;;19.37;87.20801;929.1967;;;;
2019/07/28 19:29:59;;;;;;;7.5;3.8;;;;;;;19.39;86.44238;929.2759;;;;
2019/07/28 19:33:16;;;;;;;5.9;3.7;;;;;;;19.32;86.42773;929.3375;;;;